Time;durP1;ratioP1;P1;durP2;ratioP2;P2;SDS_P1;SDS_P2;PMS_P1;PMS_P2;Temp;Humidity;BMP_temperature;BMP_pressure;BME280_temperature;BME280_humidity;BME280_pressure;Samples;Min_cycle;Max_cycle;Signal;HPM_P1;HPM_P2
2024/04/02 00:02:18;;;;;;;;;1.00;1.00;;;;;;;;4954927;28;8851;-68
2024/04/02 00:04:43;;;;;;;;;2.50;2.00;;;;;;;;4954259;28;8820;-68
2024/04/02 00:07:09;;;;;;;;;3.50;1.25;;;;;;;;4954531;28;8926;-69
2024/04/02 00:09:34;;;;;;;;;3.50;2.25;;;;;;;;4954459;28;8836;-68
2024/04/02 00:12:00;;;;;;;;;1.25;1.25;;;;;;;;4954502;28;8931;-69
2024/04/02 00:14:25;;;;;;;;;3.75;1.25;;;;;;;;4954429;28;8950;-69
2024/04/02 00:16:50;;;;;;;;;2.50;1.75;;;;;;;;4954289;28;8812;-69
2024/04/02 00:19:16;;;;;;;;;2.50;1.00;;;;;;;;4953120;28;8875;-68
2024/04/02 00:21:41;;;;;;;;;1.75;1.75;;;;;;;;4953911;28;9566;-68
2024/04/02 00:24:09;;;;;;;;;1.00;1.00;;;;;;;;4954084;28;8846;-68
2024/04/02 00:26:34;;;;;;;;;13.00;3.00;;;;;;;;4954250;28;8822;-68
2024/04/02 00:29:00;;;;;;;;;2.00;1.50;;;;;;;;4954176;28;11497;-68
2024/04/02 00:31:25;;;;;;;;;2.00;1.25;;;;;;;;4954081;28;8826;-68
2024/04/02 00:33:50;;;;;;;;;3.25;2.25;;;;;;;;4953998;28;8808;-67
2024/04/02 00:36:16;;;;;;;;;1.00;1.00;;;;;;;;4954028;28;9585;-67
2024/04/02 21:18:31;;;;;;;;;7.75;7.00;;;;;;;;5085163;27;13399;-72
2024/04/02 21:20:56;;;;;;;;;10.00;7.00;;;;;;;;5067939;28;11511;-74
2024/04/02 21:23:22;;;;;;;;;7.25;4.75;;;;;;;;5067740;28;11441;-75
2024/04/02 21:25:47;;;;;;;;;10.50;7.00;;;;;;;;5067795;28;8798;-70
2024/04/02 21:28:12;;;;;;;;;14.25;11.25;;;;;;;;5049767;28;8814;-69
2024/04/02 21:30:38;;;;;;;;;10.75;8.25;;;;;;;;5067768;28;9563;-74
2024/04/02 21:33:03;;;;;;;;;8.00;6.50;;;;;;;;5067682;28;8792;-75
2024/04/02 21:35:29;;;;;;;;;11.00;8.50;;;;;;;;5067514;28;8892;-75
2024/04/02 21:37:56;;;;;;;;;11.00;9.25;;;;;;;;5067604;28;8904;-75
2024/04/02 21:40:21;;;;;;;;;9.00;6.50;;;;;;;;5067612;28;8806;-76
2024/04/02 21:42:46;;;;;;;;;10.75;8.75;;;;;;;;5066842;28;11392;-75
2024/04/02 21:45:12;;;;;;;;;10.25;7.50;;;;;;;;5049677;28;8784;-76
2024/04/02 21:47:57;;;;;;;;;9.00;7.75;;;;;;;;5060641;28;9578;-75
2024/04/02 21:50:22;;;;;;;;;12.00;10.00;;;;;;;;5066332;28;9580;-77
2024/04/02 21:52:51;;;;;;;;;11.75;11.00;;;;;;;;5066738;28;11397;-75
2024/04/02 21:55:16;;;;;;;;;5.00;5.00;;;;;;;;5066612;28;8805;-75
2024/04/02 21:57:42;;;;;;;;;9.50;6.00;;;;;;;;5066567;28;11389;-75
2024/04/02 22:00:08;;;;;;;;;7.50;3.00;;;;;;;;5066756;28;8799;-76
2024/04/02 22:02:33;;;;;;;;;7.25;6.00;;;;;;;;5066738;28;8774;-77
2024/04/02 22:04:59;;;;;;;;;6.25;5.25;;;;;;;;5066502;28;11379;-74
2024/04/02 22:07:24;;;;;;;;;6.25;5.25;;;;;;;;5063862;28;8814;-74
2024/04/02 22:09:50;;;;;;;;;6.00;5.00;;;;;;;;5063550;28;8809;-69
2024/04/02 22:12:16;;;;;;;;;8.50;6.75;;;;;;;;5064727;28;8811;-69
2024/04/02 22:14:42;;;;;;;;;6.00;5.75;;;;;;;;5065341;28;8794;-72
2024/04/02 22:17:07;;;;;;;;;3.00;3.00;;;;;;;;5065086;28;11387;-77
2024/04/02 22:19:32;;;;;;;;;4.75;4.50;;;;;;;;5066134;28;8789;-76
2024/04/02 22:21:58;;;;;;;;;6.50;5.00;;;;;;;;5047076;28;8834;-76
2024/04/02 22:24:23;;;;;;;;;5.00;5.00;;;;;;;;5064062;28;8786;-76
2024/04/02 22:26:48;;;;;;;;;5.75;3.00;;;;;;;;5064518;28;8914;-78
2024/04/02 22:29:13;;;;;;;;;4.75;4.00;;;;;;;;5054586;28;8778;-76
2024/04/02 22:31:39;;;;;;;;;2.25;2.25;;;;;;;;5051335;28;8857;-76
2024/04/02 22:34:04;;;;;;;;;2.25;2.25;;;;;;;;5051416;28;8786;-76
2024/04/02 22:36:29;;;;;;;;;3.00;2.75;;;;;;;;5052048;28;8822;-76
2024/04/02 22:38:55;;;;;;;;;4.50;4.00;;;;;;;;5053254;28;8775;-76
2024/04/02 22:41:20;;;;;;;;;3.00;2.00;;;;;;;;5053219;28;8775;-76
2024/04/02 22:43:45;;;;;;;;;1.75;1.00;;;;;;;;5053303;28;8875;-76
2024/04/02 22:46:11;;;;;;;;;8.00;2.75;;;;;;;;5053140;28;8774;-76
2024/04/02 22:48:36;;;;;;;;;3.00;2.00;;;;;;;;5035339;28;8802;-76
2024/04/02 22:51:01;;;;;;;;;2.75;2.25;;;;;;;;5053059;28;8775;-76
2024/04/02 22:53:26;;;;;;;;;5.00;3.00;;;;;;;;5053221;28;8786;-76
2024/04/02 22:55:52;;;;;;;;;2.25;2.00;;;;;;;;5052847;28;9496;-75
2024/04/02 22:58:18;;;;;;;;;5.75;3.00;;;;;;;;5053303;28;8818;-76
2024/04/02 23:00:45;;;;;;;;;3.00;3.00;;;;;;;;5035073;28;9007;-76
2024/04/02 23:03:13;;;;;;;;;5.00;3.00;;;;;;;;5034879;28;8810;-75
2024/04/02 23:05:38;;;;;;;;;5.00;2.00;;;;;;;;5034858;28;11395;-75
2024/04/02 23:08:03;;;;;;;;;5.50;5.00;;;;;;;;5052781;28;11426;-75
2024/04/02 23:10:29;;;;;;;;;2.50;2.50;;;;;;;;5052527;28;8790;-75
2024/04/02 23:12:54;;;;;;;;;5.00;1.75;;;;;;;;5052650;28;8824;-75
2024/04/02 23:15:20;;;;;;;;;4.00;2.00;;;;;;;;5052755;28;8767;-75
2024/04/02 23:17:45;;;;;;;;;1.00;1.00;;;;;;;;5034650;28;8802;-75
2024/04/02 23:20:11;;;;;;;;;3.75;1.50;;;;;;;;5052472;28;12071;-75
2024/04/02 23:22:36;;;;;;;;;2.00;2.00;;;;;;;;5052562;28;8794;-76
2024/04/02 23:25:02;;;;;;;;;3.00;1.00;;;;;;;;5052328;28;9493;-75
2024/04/02 23:27:27;;;;;;;;;1.75;1.75;;;;;;;;5052524;28;8818;-75
2024/04/02 23:29:53;;;;;;;;;3.00;1.75;;;;;;;;5052380;28;8766;-75
2024/04/02 23:32:18;;;;;;;;;2.00;2.00;;;;;;;;5052384;28;8786;-76
2024/04/02 23:34:44;;;;;;;;;2.25;1.75;;;;;;;;5034306;28;11421;-75
2024/04/02 23:37:09;;;;;;;;;1.00;1.00;;;;;;;;5052228;28;8863;-71
2024/04/02 23:39:34;;;;;;;;;2.25;1.00;;;;;;;;5051508;28;8786;-71
2024/04/02 23:41:59;;;;;;;;;2.75;2.00;;;;;;;;5051727;28;8811;-71
2024/04/02 23:44:25;;;;;;;;;2.00;2.00;;;;;;;;5052114;28;8802;-71
2024/04/02 23:46:50;;;;;;;;;5.00;2.00;;;;;;;;5052068;28;8798;-71
2024/04/02 23:49:15;;;;;;;;;1.50;1.50;;;;;;;;5052123;28;8868;-71
2024/04/02 23:51:40;;;;;;;;;2.00;1.50;;;;;;;;5052048;28;8790;-71
2024/04/02 23:54:06;;;;;;;;;2.25;1.75;;;;;;;;5051841;28;8801;-70
2024/04/02 23:56:31;;;;;;;;;1.00;1.00;;;;;;;;5051862;28;8778;-71
2024/04/02 23:58:56;;;;;;;;;1.75;1.75;;;;;;;;5052231;28;8825;-71
